Time;durP1;ratioP1;P1;durP2;ratioP2;P2;SDS_P1;SDS_P2;PMS_P1;PMS_P2;Temp;Humidity;BMP_temperature;BMP_pressure;BME280_temperature;BME280_humidity;BME280_pressure;Samples;Min_cycle;Max_cycle;Signal;HPM_P1;HPM_P2
2023/07/10 00:00:55;;;;;;;8.33;3.90;;;;;;;25.05;45.83;98946.03;5134345;27;39541;-82
2023/07/10 00:03:23;;;;;;;5.20;3.50;;;;;;;25.07;46.40;98930.44;5134454;27;41091;-81
2023/07/10 00:05:51;;;;;;;4.90;4.10;;;;;;;24.90;46.53;98907.19;5134168;27;43658;-80
2023/07/10 00:08:19;;;;;;;4.57;3.73;;;;;;;25.05;46.22;98929.75;5133962;27;42369;-82
2023/07/10 00:10:46;;;;;;;5.27;3.97;;;;;;;24.97;46.37;98919.03;5134167;27;40151;-77
2023/07/10 00:13:14;;;;;;;3.57;3.17;;;;;;;25.03;46.53;98929.09;5133983;27;41101;-81
2023/07/10 00:15:42;;;;;;;4.93;3.40;;;;;;;24.88;46.77;98907.38;5116632;27;44513;-78
2023/07/10 00:18:16;;;;;;;3.70;3.30;;;;;;;24.89;46.86;98916.34;5133456;27;41270;-80
2023/07/10 00:20:46;;;;;;;4.87;3.33;;;;;;;24.78;47.13;98911.41;5133749;27;41072;-79
2023/07/10 00:23:16;;;;;;;6.20;3.23;;;;;;;24.76;46.91;98924.28;5133852;27;40763;-81
2023/07/10 00:25:45;;;;;;;4.53;3.77;;;;;;;24.68;47.61;98923.34;5152425;27;42764;-83
2023/07/10 00:28:16;;;;;;;5.60;3.53;;;;;;;24.63;47.36;98928.47;5116483;27;44038;-78
2023/07/10 00:30:45;;;;;;;3.63;3.33;;;;;;;24.58;47.75;98917.34;5116697;27;40979;-82
2023/07/10 00:33:16;;;;;;;4.97;3.60;;;;;;;24.57;47.56;98923.78;5133495;27;40975;-78
2023/07/10 00:35:44;;;;;;;4.60;3.90;;;;;;;24.52;47.82;98915.38;5116183;27;41392;-79
2023/07/10 00:38:18;;;;;;;4.10;3.30;;;;;;;24.56;47.85;98927.53;5116084;27;42135;-81
2023/07/10 00:40:48;;;;;;;3.73;3.37;;;;;;;24.30;48.00;98883.75;5130794;27;41062;-81
2023/07/10 00:43:29;;;;;;;4.73;3.40;;;;;;;24.52;48.21;98922.66;5116656;27;40653;-83
2023/07/10 00:46:04;;;;;;;4.40;4.00;;;;;;;24.51;48.12;98919.09;5116333;27;41796;-81
2023/07/10 00:48:40;;;;;;;4.67;3.23;;;;;;;24.47;48.17;98909.69;5133231;27;41998;-79
2023/07/10 00:51:17;;;;;;;3.40;3.10;;;;;;;24.41;48.48;98910.38;5130689;27;41813;-78
2023/07/10 00:53:47;;;;;;;5.17;3.87;;;;;;;24.34;48.68;98907.59;5133082;27;42493;-80
2023/07/10 00:56:19;;;;;;;4.33;3.50;;;;;;;24.32;48.58;98915.03;5133335;27;42356;-81
2023/07/10 00:58:49;;;;;;;5.60;4.27;;;;;;;24.31;48.58;98909.81;5134983;27;42976;-84
2023/07/10 01:01:19;;;;;;;3.90;3.50;;;;;;;24.28;48.61;98918.28;5136782;27;41610;-78
2023/07/10 01:03:50;;;;;;;4.43;3.50;;;;;;;24.24;48.82;98928.63;5136781;27;41849;-82
2023/07/10 01:06:21;;;;;;;4.33;3.47;;;;;;;24.19;49.24;98913.94;5119462;27;43071;-79
2023/07/10 01:08:52;;;;;;;5.27;3.60;;;;;;;24.17;49.51;98906.00;5119517;27;41307;-83
2023/07/10 01:11:21;;;;;;;4.67;3.70;;;;;;;24.17;49.92;98915.97;5133862;27;41889;-80
2023/07/10 01:13:52;;;;;;;5.33;3.80;;;;;;;24.16;49.73;98912.41;5119339;27;40538;-83
2023/07/10 01:16:20;;;;;;;5.37;4.30;;;;;;;24.17;50.00;98899.72;5119313;27;41701;-84
2023/07/10 01:18:50;;;;;;;4.47;3.70;;;;;;;23.82;50.84;98836.25;5119368;27;42775;-78
2023/07/10 01:21:25;;;;;;;4.60;3.77;;;;;;;24.20;51.24;98886.69;5119459;27;40059;-80
2023/07/10 01:23:55;;;;;;;4.97;3.90;;;;;;;24.20;50.63;98899.38;5119368;27;41769;-79
2023/07/10 01:26:23;;;;;;;4.37;3.73;;;;;;;24.18;50.55;98901.41;5136238;27;43091;-83
2023/07/10 01:28:52;;;;;;;5.87;4.03;;;;;;;24.16;50.68;98917.00;5119184;27;41532;-78
2023/07/10 01:31:21;;;;;;;4.17;3.53;;;;;;;24.11;50.91;98922.13;5136639;27;40924;-79
2023/07/10 01:33:53;;;;;;;4.93;4.00;;;;;;;23.86;51.11;98903.31;5136226;27;42949;-78
2023/07/10 01:36:25;;;;;;;4.47;3.43;;;;;;;23.95;51.27;98950.13;5118897;27;42194;-82
2023/07/10 01:38:59;;;;;;;5.30;3.90;;;;;;;23.87;51.45;98961.81;5136422;27;43124;-78
2023/07/10 01:41:32;;;;;;;5.00;3.90;;;;;;;23.75;52.50;98938.91;5133293;27;41592;-79
2023/07/10 01:44:00;;;;;;;5.00;4.37;;;;;;;23.74;53.55;98947.22;5136727;27;42153;-82
2023/07/10 01:46:29;;;;;;;5.47;4.20;;;;;;;23.77;53.17;98952.25;5136340;27;41921;-79
2023/07/10 01:49:00;;;;;;;6.47;4.73;;;;;;;23.79;53.20;98948.34;5136139;27;41054;-81
2023/07/10 01:51:29;;;;;;;5.33;3.83;;;;;;;23.68;53.17;98910.03;5119343;27;39866;-80
2023/07/10 01:54:03;;;;;;;4.27;3.87;;;;;;;23.94;52.57;98949.28;5118725;27;41184;-80
2023/07/10 01:56:32;;;;;;;4.80;3.40;;;;;;;24.00;52.08;98958.53;5118575;27;41878;-83
2023/07/10 01:59:00;;;;;;;3.90;3.37;;;;;;;24.04;52.13;98965.28;5136083;27;42059;-80
2023/07/10 02:01:27;;;;;;;5.30;3.63;;;;;;;24.03;51.91;98966.28;5118703;27;40947;-81
2023/07/10 02:03:55;;;;;;;4.50;3.77;;;;;;;24.04;52.09;98964.44;5135601;27;42218;-81
2023/07/10 02:06:23;;;;;;;5.60;3.43;;;;;;;24.03;52.46;98963.59;5135939;27;42827;-78
2023/07/10 02:08:52;;;;;;;5.03;4.17;;;;;;;24.02;52.54;98967.31;5153653;27;43301;-79
2023/07/10 02:11:20;;;;;;;4.40;3.73;;;;;;;24.04;52.87;98972.56;5135032;27;41854;-83
2023/07/10 02:13:48;;;;;;;4.97;4.03;;;;;;;24.03;52.43;98979.81;5135968;27;41790;-79
2023/07/10 02:16:16;;;;;;;4.37;3.90;;;;;;;24.03;52.17;98974.41;5118382;27;41473;-79
2023/07/10 02:18:44;;;;;;;6.80;4.60;;;;;;;24.03;52.95;98971.69;5118007;27;41276;-83
2023/07/10 02:21:12;;;;;;;5.03;4.40;;;;;;;24.02;53.25;98961.06;5118624;27;39560;-82
2023/07/10 02:23:41;;;;;;;4.60;4.00;;;;;;;24.00;52.90;98964.78;5135316;27;41868;-80
2023/07/10 02:26:10;;;;;;;6.13;4.83;;;;;;;24.00;52.81;98959.38;5118260;27;41922;-81
2023/07/10 02:28:38;;;;;;;5.67;4.43;;;;;;;23.86;52.75;98930.38;5135238;27;42287;-79
2023/07/10 02:31:07;;;;;;;5.30;3.90;;;;;;;24.00;52.92;98948.53;5135619;27;40911;-81
2023/07/10 02:33:35;;;;;;;5.67;4.70;;;;;;;23.85;52.67;98926.00;5117985;27;41763;-83
2023/07/10 02:36:03;;;;;;;5.33;4.33;;;;;;;23.95;52.68;98948.25;5153779;27;43636;-81
2023/07/10 02:38:31;;;;;;;6.33;4.33;;;;;;;23.94;52.70;98957.41;5135160;27;42048;-79
2023/07/10 02:40:59;;;;;;;5.53;4.47;;;;;;;23.90;52.81;98941.69;5153735;27;40820;-79
2023/07/10 02:43:29;;;;;;;5.67;3.90;;;;;;;23.84;53.09;98929.72;5135018;27;42405;-82
2023/07/10 02:45:57;;;;;;;5.03;4.40;;;;;;;23.84;52.93;98939.72;5117948;27;42242;-80
2023/07/10 02:48:25;;;;;;;6.27;4.70;;;;;;;23.82;53.07;98939.88;5117723;27;41246;-81
2023/07/10 02:50:53;;;;;;;5.87;4.40;;;;;;;23.65;52.88;98905.84;5135515;27;41247;-81
2023/07/10 02:53:22;;;;;;;4.60;4.13;;;;;;;23.73;53.18;98935.56;5117788;27;41522;-82
2023/07/10 02:55:49;;;;;;;5.37;4.47;;;;;;;23.76;53.24;98935.16;5117802;27;42737;-81
2023/07/10 02:58:17;;;;;;;4.27;3.87;;;;;;;23.75;53.10;98933.47;5153822;27;43286;-79
2023/07/10 03:00:55;;;;;;;5.50;4.57;;;;;;;23.73;53.90;98923.88;5153504;27;40990;-83
2023/07/10 03:03:23;;;;;;;5.23;4.43;;;;;;;23.73;53.98;98922.03;5134472;27;41789;-81
2023/07/10 03:05:55;;;;;;;5.07;4.57;;;;;;;23.72;53.68;98916.78;5135088;27;42601;-81
2023/07/10 03:08:22;;;;;;;5.17;4.23;;;;;;;23.77;53.71;98917.94;5135329;27;42358;-78
2023/07/10 03:10:58;;;;;;;6.33;4.50;;;;;;;23.76;53.74;98929.75;5145691;27;41190;-80
2023/07/10 03:13:26;;;;;;;5.20;4.53;;;;;;;23.74;53.61;98939.09;5143404;27;42399;-83
2023/07/10 03:16:03;;;;;;;5.17;4.27;;;;;;;23.73;53.22;98932.00;5135125;27;43004;-80
2023/07/10 03:18:31;;;;;;;6.83;4.57;;;;;;;23.72;53.77;98933.88;5134938;27;42528;-79
2023/07/10 03:20:59;;;;;;;6.63;4.27;;;;;;;23.77;53.41;98942.28;5153076;27;41846;-83
2023/07/10 03:23:27;;;;;;;4.87;4.30;;;;;;;23.78;53.62;98943.97;5134972;27;41580;-82
2023/07/10 03:25:55;;;;;;;3.93;3.50;;;;;;;23.77;53.61;98949.53;5153585;27;43463;-80
2023/07/10 03:28:22;;;;;;;4.40;4.00;;;;;;;23.77;53.58;98963.91;5117365;27;42353;-78
2023/07/10 03:30:50;;;;;;;4.73;4.13;;;;;;;23.76;53.36;98962.22;5153126;27;42021;-79
2023/07/10 03:33:20;;;;;;;4.63;4.07;;;;;;;23.75;53.21;98975.91;5134520;27;41830;-82
2023/07/10 03:35:49;;;;;;;5.33;4.20;;;;;;;23.73;53.45;98977.97;5116882;27;43032;-80
2023/07/10 03:38:18;;;;;;;5.00;4.30;;;;;;;23.52;53.51;98957.78;5134556;27;43294;-83
2023/07/10 03:40:52;;;;;;;6.13;4.30;;;;;;;23.69;53.44;98988.28;5134821;27;40955;-79
2023/07/10 03:43:19;;;;;;;4.93;4.37;;;;;;;23.58;53.51;98977.88;5134389;27;40756;-81
2023/07/10 03:45:47;;;;;;;4.63;3.87;;;;;;;23.63;53.21;98980.88;5117391;27;41932;-79
2023/07/10 03:48:15;;;;;;;6.30;4.33;;;;;;;23.70;53.98;98983.72;5134256;27;42292;-78
2023/07/10 03:50:44;;;;;;;5.00;4.50;;;;;;;23.73;53.74;98981.53;5134253;27;40910;-78
2023/07/10 03:53:12;;;;;;;5.10;4.60;;;;;;;23.64;53.58;98959.06;5134102;27;42068;-78
2023/07/10 03:55:48;;;;;;;4.17;3.70;;;;;;;23.83;53.77;98976.72;5134093;27;41539;-79
2023/07/10 03:58:19;;;;;;;4.80;3.97;;;;;;;23.81;53.62;98965.25;5116958;27;42029;-80
2023/07/10 04:00:47;;;;;;;6.30;4.97;;;;;;;23.99;53.45;98990.16;5117137;27;41003;-78
2023/07/10 04:03:15;;;;;;;5.03;3.73;;;;;;;24.07;53.14;98991.13;5133863;27;41641;-81
2023/07/10 04:05:49;;;;;;;4.40;4.00;;;;;;;24.14;52.96;99002.91;5133954;27;41734;-80
2023/07/10 04:08:16;;;;;;;4.10;3.70;;;;;;;24.21;52.90;99012.03;5116775;27;41544;-81
2023/07/10 04:10:49;;;;;;;5.97;4.27;;;;;;;24.27;52.80;99027.56;5134201;27;41738;-81
2023/07/10 04:13:17;;;;;;;4.57;4.17;;;;;;;24.17;53.00;99025.06;5116886;27;40275;-78
2023/07/10 04:15:56;;;;;;;6.33;4.20;;;;;;;24.23;54.02;99035.19;5133918;27;42824;-80
2023/07/10 04:18:24;;;;;;;5.77;4.23;;;;;;;24.28;53.63;99048.19;5116378;27;42227;-81
2023/07/10 04:20:52;;;;;;;4.70;4.30;;;;;;;24.23;53.86;99056.03;5116908;27;41008;-83
2023/07/10 04:23:20;;;;;;;5.40;4.30;;;;;;;24.18;53.58;99059.22;5116444;27;40714;-78
2023/07/10 04:25:49;;;;;;;6.03;4.23;;;;;;;24.14;53.75;99052.47;5116513;27;41813;-80
2023/07/10 04:28:17;;;;;;;6.23;5.47;;;;;;;24.02;54.13;99037.66;5116504;27;42083;-80
2023/07/10 04:30:46;;;;;;;5.57;4.47;;;;;;;24.10;54.41;99062.00;5152474;27;40876;-80
2023/07/10 04:33:15;;;;;;;6.30;4.53;;;;;;;24.08;54.56;99055.06;5134307;27;40737;-80
2023/07/10 04:35:43;;;;;;;6.23;4.63;;;;;;;24.08;54.50;99068.59;5137258;27;42563;-81
2023/07/10 04:38:12;;;;;;;4.97;4.53;;;;;;;24.04;54.73;99059.97;5137359;27;42179;-82
2023/07/10 04:40:40;;;;;;;5.10;4.60;;;;;;;23.72;54.95;99015.00;5137066;27;40894;-77
2023/07/10 04:43:07;;;;;;;6.30;5.57;;;;;;;24.00;55.06;99073.00;5136953;27;40713;-82
2023/07/10 04:45:35;;;;;;;5.57;4.50;;;;;;;24.01;54.65;99076.56;5119860;27;42093;-80
2023/07/10 04:48:03;;;;;;;8.10;5.87;;;;;;;23.98;55.24;99075.03;5136928;27;43029;-82
2023/07/10 04:50:31;;;;;;;4.93;4.33;;;;;;;23.99;55.09;99068.59;5155789;27;41904;-81
2023/07/10 04:52:58;;;;;;;5.63;4.00;;;;;;;24.01;54.56;99084.66;5155082;27;41811;-82
2023/07/10 04:55:27;;;;;;;4.77;4.33;;;;;;;24.03;54.73;99071.81;5119823;27;42044;-81
2023/07/10 04:57:55;;;;;;;5.23;4.40;;;;;;;24.08;54.41;99076.72;5136502;27;42409;-80
2023/07/10 05:00:23;;;;;;;4.53;4.00;;;;;;;24.20;54.19;99083.41;5119409;27;41012;-79
2023/07/10 05:02:51;;;;;;;4.20;3.80;;;;;;;24.33;54.36;99089.13;5136965;27;40820;-80
2023/07/10 05:05:18;;;;;;;5.10;4.27;;;;;;;24.44;55.44;99083.31;5155469;27;42873;-83
2023/07/10 05:07:46;;;;;;;6.77;4.27;;;;;;;24.55;54.67;99076.63;5136621;27;41165;-79
2023/07/10 05:10:13;;;;;;;5.13;4.63;;;;;;;24.74;54.37;99080.72;5155344;27;40904;-81
2023/07/10 05:12:42;;;;;;;5.03;4.50;;;;;;;24.90;54.28;99080.59;5155416;27;42402;-79
2023/07/10 05:15:11;;;;;;;5.60;4.53;;;;;;;24.99;54.05;99052.44;5119507;27;41597;-79
2023/07/10 05:17:38;;;;;;;6.13;4.47;;;;;;;25.26;54.17;99073.53;5136593;27;43368;-78
2023/07/10 05:20:07;;;;;;;6.70;4.57;;;;;;;25.42;53.54;99065.25;5136978;27;41846;-81
2023/07/10 05:22:35;;;;;;;6.30;5.00;;;;;;;25.74;52.78;99093.91;5118609;27;40753;-79
2023/07/10 05:25:03;;;;;;;11.47;5.83;;;;;;;25.85;52.61;99070.88;5119453;27;41816;-81
2023/07/10 05:27:31;;;;;;;7.67;5.30;;;;;;;26.11;52.44;99098.38;5119015;27;42340;-83
2023/07/10 05:30:30;;;;;;;10.57;4.87;;;;;;;25.91;52.50;99048.44;5119204;27;39861;-79
2023/07/10 05:33:19;;;;;;;5.10;4.60;;;;;;;26.22;52.66;99107.06;5113432;27;42532;-84
2023/07/10 05:35:54;;;;;;;6.77;5.27;;;;;;;26.11;52.42;99097.53;5154652;27;43706;-82
2023/07/10 05:38:23;;;;;;;6.13;5.03;;;;;;;26.15;52.59;99108.88;5135705;27;43000;-81
2023/07/10 05:40:51;;;;;;;7.33;5.53;;;;;;;26.24;52.67;99118.59;5119061;27;40884;-77
2023/07/10 05:43:18;;;;;;;6.73;5.53;;;;;;;26.25;52.63;99103.97;5136209;27;43047;-81
2023/07/10 05:45:48;;;;;;;5.60;5.10;;;;;;;26.54;52.31;99125.69;5135850;27;41684;-82
2023/07/10 05:48:15;;;;;;;8.20;5.63;;;;;;;26.78;51.51;99117.16;5135797;27;41651;-83
2023/07/10 05:50:44;;;;;;;7.97;5.03;;;;;;;26.72;51.02;99071.72;5154511;27;40762;-81
2023/07/10 05:53:11;;;;;;;8.63;5.00;;;;;;;27.30;50.49;99121.47;5118612;27;40632;-80
2023/07/10 05:55:44;;;;;;;8.33;4.80;;;;;;;27.60;50.13;99122.13;5136253;27;43481;-79
2023/07/10 05:58:12;;;;;;;7.33;5.07;;;;;;;27.99;49.05;99127.00;5135356;27;43439;-80
2023/07/10 06:00:41;;;;;;;6.53;4.77;;;;;;;28.36;48.68;99138.53;5136227;27;41514;-78
2023/07/10 06:03:10;;;;;;;6.80;5.20;;;;;;;28.46;48.33;99118.00;5135565;27;41780;-84
2023/07/10 06:05:38;;;;;;;6.37;5.10;;;;;;;28.62;48.38;99154.13;5154659;27;43536;-83
2023/07/10 06:08:06;;;;;;;6.90;4.80;;;;;;;28.56;48.16;99166.72;5118517;27;41075;-87
2023/07/10 06:10:34;;;;;;;5.27;4.77;;;;;;;28.46;48.33;99166.22;5118503;27;39728;-80
2023/07/10 06:13:02;;;;;;;6.30;4.87;;;;;;;28.48;48.26;99164.97;5118368;27;42125;-81
2023/07/10 06:15:29;;;;;;;6.27;4.90;;;;;;;28.55;48.39;99165.03;5118515;27;41956;-81
2023/07/10 06:17:57;;;;;;;7.33;4.63;;;;;;;28.74;47.87;99166.97;5135777;27;42340;-80
2023/07/10 06:20:27;;;;;;;9.13;5.40;;;;;;;28.79;47.94;99155.50;5135883;27;40994;-86
2023/07/10 06:22:54;;;;;;;6.40;4.37;;;;;;;28.85;47.86;99151.94;5136811;27;41669;-85
2023/07/10 06:25:22;;;;;;;5.23;4.70;;;;;;;28.94;47.87;99153.41;5136063;27;41906;-85
2023/07/10 06:27:49;;;;;;;6.90;4.70;;;;;;;29.08;47.83;99146.94;5118691;27;42339;-87
2023/07/10 06:30:17;;;;;;;5.60;4.77;;;;;;;29.36;47.24;99162.28;5119259;27;39997;-89
2023/07/10 06:32:45;;;;;;;6.47;5.03;;;;;;;29.07;47.07;99131.63;5154480;27;41630;-90
2023/07/10 06:35:13;;;;;;;6.83;4.83;;;;;;;29.16;47.14;99157.66;5137614;27;43475;-89
2023/07/10 06:37:44;;;;;;;6.27;4.80;;;;;;;29.08;47.61;99162.47;5118522;27;42964;-82
2023/07/10 06:40:14;;;;;;;5.07;4.57;;;;;;;28.89;47.79;99162.22;5126856;27;39628;-81
2023/07/10 06:42:43;;;;;;;5.87;5.13;;;;;;;28.76;48.15;99162.16;5153354;27;42184;-86
2023/07/10 06:45:14;;;;;;;8.83;4.67;;;;;;;28.67;48.67;99152.50;5127716;27;42039;-87
2023/07/10 06:47:45;;;;;;;8.70;4.93;;;;;;;28.74;48.71;99147.88;5120784;27;41427;-83
2023/07/10 06:50:15;;;;;;;7.03;5.17;;;;;;;28.77;48.31;99144.75;5119026;27;39798;-82
2023/07/10 06:52:45;;;;;;;4.77;4.10;;;;;;;28.83;48.53;99143.94;5118331;27;40922;-79
2023/07/10 06:55:15;;;;;;;5.47;4.60;;;;;;;28.93;48.21;99158.03;5137518;27;43369;-84
2023/07/10 06:57:43;;;;;;;5.73;5.00;;;;;;;28.88;47.89;99155.09;5139566;27;42503;-87
2023/07/10 07:00:14;;;;;;;6.20;5.60;;;;;;;28.83;47.68;99163.03;5136706;27;41587;-87
2023/07/10 07:02:42;;;;;;;9.80;5.37;;;;;;;28.93;47.58;99157.22;5118155;27;41610;-85
2023/07/10 07:05:11;;;;;;;6.37;5.20;;;;;;;29.01;47.27;99139.81;5135399;27;42887;-86
2023/07/10 07:07:39;;;;;;;9.23;6.03;;;;;;;29.34;47.05;99176.16;5117700;27;41145;-85
2023/07/10 07:10:13;;;;;;;6.17;5.30;;;;;;;29.55;46.57;99192.34;5118337;27;40245;-82
2023/07/10 07:12:41;;;;;;;9.13;5.63;;;;;;;29.74;46.58;99184.38;5133630;27;42579;-82
2023/07/10 07:15:11;;;;;;;6.60;5.40;;;;;;;29.87;45.93;99176.16;5153407;27;42594;-81
2023/07/10 07:17:39;;;;;;;6.63;5.30;;;;;;;30.24;45.47;99207.44;5136075;27;42739;-86
2023/07/10 07:20:09;;;;;;;5.57;5.00;;;;;;;30.46;45.54;99199.81;5135380;27;40187;-84
2023/07/10 07:22:36;;;;;;;7.27;5.40;;;;;;;30.66;45.15;99203.34;5134549;27;41568;-78
2023/07/10 07:25:05;;;;;;;5.47;4.97;;;;;;;30.80;45.15;99198.66;5117763;27;41876;-88
2023/07/10 07:27:34;;;;;;;5.80;5.30;;;;;;;30.99;44.57;99201.28;5117728;27;41069;-85
2023/07/10 07:30:06;;;;;;;6.80;5.80;;;;;;;31.06;44.46;99202.09;5132319;27;41592;-81
2023/07/10 07:32:34;;;;;;;7.77;5.77;;;;;;;31.20;44.03;99204.78;5117055;27;40665;-79
2023/07/10 07:35:02;;;;;;;6.43;5.70;;;;;;;31.26;43.81;99182.84;5134885;27;42675;-89
2023/07/10 07:37:30;;;;;;;6.53;5.80;;;;;;;31.57;43.80;99200.28;5117602;27;42249;-87
2023/07/10 07:40:00;;;;;;;6.97;5.63;;;;;;;31.86;42.79;99204.31;5117907;27;39995;-89
2023/07/10 07:42:29;;;;;;;6.13;5.53;;;;;;;32.09;42.17;99234.66;5152708;27;42050;-84
2023/07/10 07:44:58;;;;;;;6.57;5.80;;;;;;;32.20;42.30;99231.19;5116854;27;43375;-81
2023/07/10 07:47:28;;;;;;;6.17;5.67;;;;;;;32.44;41.47;99224.81;5152623;27;42297;-84
2023/07/10 07:49:56;;;;;;;7.27;5.67;;;;;;;33.01;40.45;99235.56;5117293;27;40011;-82
2023/07/10 07:52:24;;;;;;;5.70;5.20;;;;;;;33.94;39.01;99238.63;5117531;27;40705;-87
2023/07/10 07:54:52;;;;;;;7.17;5.57;;;;;;;35.10;37.51;99247.84;5135349;27;42185;-88
2023/07/10 07:57:22;;;;;;;5.90;5.40;;;;;;;36.16;35.81;99259.97;5117677;27;41313;-86
2023/07/10 07:59:50;;;;;;;6.10;5.43;;;;;;;37.08;34.14;99267.66;5117165;27;40215;-88
2023/07/10 08:02:19;;;;;;;5.95;5.43;;;;;;;37.47;33.41;99265.63;5134115;27;40905;-84
2023/07/10 08:04:47;;;;;;;8.77;6.00;;;;;;;37.75;33.20;99268.97;5117464;27;42781;-84
2023/07/10 08:07:15;;;;;;;6.03;5.53;;;;;;;38.03;32.60;99276.13;5117650;27;41068;-80
2023/07/10 08:09:43;;;;;;;6.28;5.57;;;;;;;38.56;31.72;99274.34;5137801;27;41057;-81
2023/07/10 08:12:11;;;;;;;6.72;6.00;;;;;;;39.17;31.21;99274.66;5120830;27;41785;-80
2023/07/10 08:14:40;;;;;;;8.38;5.88;;;;;;;40.07;29.82;99314.78;5137824;27;41831;-84
2023/07/10 08:17:08;;;;;;;6.05;5.45;;;;;;;40.61;29.09;99305.88;5137821;27;43228;-82
2023/07/10 08:19:37;;;;;;;5.53;5.00;;;;;;;40.95;28.49;99305.25;5121039;27;39836;-85
2023/07/10 08:22:08;;;;;;;8.80;5.28;;;;;;;41.17;27.98;99320.47;5120453;27;40845;-83
2023/07/10 08:24:36;;;;;;;5.93;5.30;;;;;;;41.23;28.33;99310.16;5137702;27;42596;-86
2023/07/10 08:27:04;;;;;;;6.90;5.10;;;;;;;41.24;27.97;99312.66;5155892;27;43357;-78
2023/07/10 08:29:34;;;;;;;6.22;5.63;;;;;;;40.95;27.93;99308.03;5156888;27;41047;-87
2023/07/10 08:32:02;;;;;;;5.90;5.30;;;;;;;40.67;28.48;99324.22;5120730;27;40689;-84
2023/07/10 08:34:31;;;;;;;5.53;5.10;;;;;;;40.46;28.71;99328.13;5120022;27;42611;-82
2023/07/10 08:37:02;;;;;;;7.80;5.35;;;;;;;40.37;28.61;99313.16;5120599;27;41520;-87
2023/07/10 08:39:30;;;;;;;7.18;5.45;;;;;;;40.09;28.59;99326.44;5120336;27;39849;-82
2023/07/10 08:42:02;;;;;;;5.95;5.15;;;;;;;39.56;29.30;99288.09;5120265;27;42345;-90
2023/07/10 08:44:34;;;;;;;6.40;5.30;;;;;;;39.21;29.47;99299.88;5137157;27;43263;-85
2023/07/10 08:47:12;;;;;;;5.20;4.78;;;;;;;38.85;30.43;99293.31;5119685;27;41455;-82
2023/07/10 08:49:44;;;;;;;5.55;4.95;;;;;;;38.75;31.00;99311.56;5119915;27;41030;-80
2023/07/10 08:52:17;;;;;;;5.32;4.82;;;;;;;38.58;30.89;99291.50;5134232;27;41711;-82
2023/07/10 08:54:53;;;;;;;6.20;5.10;;;;;;;38.54;30.71;99309.78;5119951;27;41836;-78
2023/07/10 08:57:27;;;;;;;5.32;4.82;;;;;;;38.35;31.13;99305.72;5111121;28;41513;-85
2023/07/10 09:00:04;;;;;;;6.63;5.60;;;;;;;38.24;31.57;99295.69;5078316;28;39932;-87
2023/07/10 09:02:39;;;;;;;6.75;5.20;;;;;;;38.23;31.58;99285.72;5078432;28;41765;-80
2023/07/10 09:05:09;;;;;;;5.35;4.90;;;;;;;38.20;31.30;99264.13;5095145;28;41742;-85
2023/07/10 09:07:42;;;;;;;5.60;4.80;;;;;;;38.53;31.20;99305.34;5078160;28;41109;-84
2023/07/10 09:10:17;;;;;;;5.43;4.93;;;;;;;38.60;31.27;99303.16;5094280;28;40996;-83
2023/07/10 09:12:49;;;;;;;6.97;5.97;;;;;;;38.59;31.15;99295.94;5094194;28;41828;-87
2023/07/10 09:15:21;;;;;;;6.53;5.82;;;;;;;38.69;31.53;99306.28;5094829;28;42689;-88
2023/07/10 09:17:59;;;;;;;6.07;5.45;;;;;;;38.93;31.11;99317.75;5093495;28;43219;-88
2023/07/10 09:20:27;;;;;;;6.40;5.55;;;;;;;39.18;30.62;99330.91;5093817;28;40563;-86
2023/07/10 09:23:00;;;;;;;6.00;5.30;;;;;;;39.03;31.01;99328.91;5095028;28;42537;-89
2023/07/10 09:25:28;;;;;;;6.30;5.70;;;;;;;39.01;31.43;99317.25;5094802;28;42800;-87
2023/07/10 09:27:57;;;;;;;7.20;6.30;;;;;;;39.00;31.20;99318.34;5120749;27;41116;-84
2023/07/10 09:30:39;;;;;;;6.38;5.75;;;;;;;39.43;30.72;99329.09;5119428;27;41020;-85
2023/07/10 09:33:09;;;;;;;7.22;5.53;;;;;;;39.42;30.39;99327.44;5151788;27;41621;-79
2023/07/10 09:35:41;;;;;;;6.50;5.90;;;;;;;39.20;30.65;99325.91;5154004;27;42954;-89
2023/07/10 09:38:12;;;;;;;6.53;5.82;;;;;;;39.41;30.83;99323.00;5133471;27;43298;-85
2023/07/10 09:40:43;;;;;;;6.72;6.07;;;;;;;39.72;30.29;99325.81;5154986;27;41748;-86
2023/07/10 09:43:14;;;;;;;6.43;5.82;;;;;;;40.08;29.42;99341.44;5119231;27;40140;-88
2023/07/10 09:45:46;;;;;;;6.88;6.32;;;;;;;39.97;29.73;99288.97;5119134;27;41839;-91
2023/07/10 09:48:18;;;;;;;7.97;6.10;;;;;;;40.47;29.25;99332.56;5119314;27;41700;-88
2023/07/10 09:50:50;;;;;;;7.35;6.65;;;;;;;40.25;29.34;99334.78;5119367;27;40087;-84
2023/07/10 09:53:29;;;;;;;8.27;7.57;;;;;;;39.42;30.20;99330.22;5119109;27;42118;-82
2023/07/10 09:55:56;;;;;;;8.27;7.35;;;;;;;40.11;29.46;99346.44;5118911;27;42966;-82
2023/07/10 09:58:24;;;;;;;8.35;7.50;;;;;;;41.14;28.79;99337.75;5154736;27;43413;-84
2023/07/10 10:00:52;;;;;;;7.75;7.05;;;;;;;40.56;28.69;99353.09;5154362;27;40764;-86
2023/07/10 10:03:26;;;;;;;7.97;7.28;;;;;;;39.56;29.84;99332.47;5164013;27;42929;-83
2023/07/10 10:05:55;;;;;;;8.70;7.80;;;;;;;39.36;30.27;99324.88;5138878;27;42241;-85
2023/07/10 10:08:28;;;;;;;9.23;8.27;;;;;;;38.91;30.99;99325.50;5122814;27;42495;-84
2023/07/10 10:11:05;;;;;;;8.43;7.65;;;;;;;38.74;31.41;99332.03;5118924;27;40780;-85
2023/07/10 10:13:36;;;;;;;9.13;8.32;;;;;;;38.72;31.45;99325.09;5132676;27;42454;-81
2023/07/10 10:16:08;;;;;;;8.50;7.78;;;;;;;38.63;32.02;99322.00;5132484;27;43813;-78
2023/07/10 10:18:44;;;;;;;9.30;8.38;;;;;;;38.98;31.70;99328.88;5150567;27;43401;-78
2023/07/10 10:21:13;;;;;;;9.57;8.77;;;;;;;38.49;31.81;99323.53;5151771;27;41019;-89
2023/07/10 10:23:45;;;;;;;9.95;9.10;;;;;;;38.10;32.10;99331.25;5118701;27;41831;-86
2023/07/10 10:26:28;;;;;;;9.32;8.52;;;;;;;37.94;32.33;99316.44;5136287;27;41571;-86
2023/07/10 10:29:10;;;;;;;9.88;9.05;;;;;;;38.39;32.56;99323.47;5136107;27;41329;-85
2023/07/10 10:31:41;;;;;;;10.55;9.50;;;;;;;38.64;31.84;99317.31;5117644;27;40996;-88
2023/07/10 10:34:17;;;;;;;11.40;10.32;;;;;;;38.30;31.93;99320.38;5119299;27;41011;-85
2023/07/10 10:37:00;;;;;;;10.77;9.85;;;;;;;38.09;32.42;99308.28;5118766;27;41440;-85
2023/07/10 10:39:37;;;;;;;10.07;9.18;;;;;;;38.48;32.10;99310.78;5136030;27;40957;-86
2023/07/10 10:42:12;;;;;;;9.55;8.73;;;;;;;38.31;32.39;99307.38;5118867;27;39999;-87
2023/07/10 10:44:51;;;;;;;10.02;9.02;;;;;;;37.91;31.80;99322.50;5134359;27;42484;-87
2023/07/10 10:47:40;;;;;;;9.20;8.32;;;;;;;38.00;31.81;99326.44;5118904;27;42833;-86
2023/07/10 10:50:23;;;;;;;8.98;8.20;;;;;;;38.16;31.61;99340.44;5118469;27;41450;-88
2023/07/10 10:53:18;;;;;;;9.73;8.82;;;;;;;38.17;31.47;99319.97;5108629;28;20564;-86
2023/07/10 10:55:57;;;;;;;9.80;9.00;;;;;;;38.19;31.27;99315.88;5107776;28;40791;-83
2023/07/10 10:58:39;;;;;;;9.98;9.07;;;;;;;38.07;31.25;99329.84;5104903;28;41909;-78
2023/07/10 11:01:26;;;;;;;9.63;8.85;;;;;;;37.67;30.79;99296.28;5106332;28;42882;-81
2023/07/10 11:04:02;;;;;;;10.18;9.25;;;;;;;37.65;30.98;99335.25;5090071;28;40941;-82
2023/07/10 11:06:46;;;;;;;10.38;9.38;;;;;;;37.16;31.28;99331.59;5107271;28;39393;-80
2023/07/10 11:09:20;;;;;;;9.30;8.60;;;;;;;36.93;31.94;99320.78;5106950;28;40606;-81
2023/07/10 11:11:48;;;;;;;9.83;8.90;;;;;;;36.77;32.21;99318.88;5106902;28;42673;-83
2023/07/10 11:14:16;;;;;;;10.07;9.17;;;;;;;37.07;32.13;99316.53;5089742;28;41118;-82
2023/07/10 11:16:44;;;;;;;11.00;10.00;;;;;;;37.36;31.82;99304.19;5106311;28;38699;-78
2023/07/10 11:19:17;;;;;;;10.40;9.52;;;;;;;37.58;32.20;99295.06;5106692;28;42645;-84
2023/07/10 11:21:45;;;;;;;11.07;10.07;;;;;;;37.85;31.54;99318.00;5106759;28;42904;-80
2023/07/10 11:24:35;;;;;;;10.57;9.68;;;;;;;37.92;31.39;99307.56;5106376;28;41434;-83
2023/07/10 11:27:11;;;;;;;10.60;9.70;;;;;;;37.82;31.62;99290.91;5106274;28;39344;-78
2023/07/10 11:29:43;;;;;;;10.20;9.30;;;;;;;37.80;31.41;99304.16;5089538;28;41807;-82
2023/07/10 11:32:16;;;;;;;10.75;9.68;;;;;;;38.14;31.21;99299.22;5106405;28;43774;-81
2023/07/10 11:35:07;;;;;;;10.23;9.48;;;;;;;38.39;30.55;99309.63;5104164;28;43131;-79
2023/07/10 11:38:04;;;;;;;10.63;9.82;;;;;;;38.27;30.29;99303.47;5085718;28;38979;-79
2023/07/10 11:41:08;;;;;;;9.77;8.80;;;;;;;38.64;29.74;99298.75;5103464;27;42104;-79
2023/07/10 11:43:57;;;;;;;9.60;8.80;;;;;;;39.14;28.69;99302.91;5089163;28;41563;-80
2023/07/10 11:46:34;;;;;;;10.13;9.23;;;;;;;39.35;28.40;99298.25;5105376;28;42723;-81
2023/07/10 11:49:15;;;;;;;9.65;8.85;;;;;;;40.08;28.06;99296.19;5104369;28;40826;-77